Time;durP1;ratioP1;P1;durP2;ratioP2;P2;SDS_P1;SDS_P2;PMS_P1;PMS_P2;Temp;Humidity;BMP_temperature;BMP_pressure;BME280_temperature;BME280_humidity;BME280_pressure;Samples;Min_cycle;Max_cycle;Signal;HPM_P1;HPM_P2
2021/12/31 00:01:12;;;;;;;;;;;;;;;6.23;87.60;100435.50;4479419;32;33068;-64
2021/12/31 00:03:40;;;;;;;;;;;;;;;6.22;87.36;100433.72;4458052;32;33631;-64
2021/12/31 00:06:07;;;;;;;;;;;;;;;6.45;86.42;100438.84;4461693;32;33238;-64
2021/12/31 00:08:34;;;;;;;;;;;;;;;6.41;87.14;100436.84;4478472;32;34218;-65
2021/12/31 00:11:02;;;;;;;;;;;;;;;7.35;82.94;100445.91;4439522;32;784404;-69
2021/12/31 00:13:29;;;;;;;;;;;;;;;6.89;84.29;100453.06;4461234;32;34813;-66
2021/12/31 00:15:57;;;;;;;;;;;;;;;7.26;82.58;100453.00;4464067;32;34839;-67
2021/12/31 00:18:24;;;;;;;;;;;;;;;6.69;84.83;100444.81;4473468;32;34067;-65
2021/12/31 00:20:52;;;;;;;;;;;;;;;6.48;85.91;100444.19;4474893;32;31928;-65
2021/12/31 00:23:23;;;;;;;;;;;;;;;7.12;84.20;100446.03;4475640;32;34797;-63
2021/12/31 00:25:51;;;;;;;;;;;;;;;6.94;84.26;100440.50;4479913;32;34719;-62
2021/12/31 00:28:18;;;;;;;;;;;;;;;7.16;83.41;100435.16;4476128;32;34138;-64
2021/12/31 00:30:51;;;;;;;;;;;;;;;6.68;85.80;100431.84;4462885;32;32681;-66
2021/12/31 00:33:20;;;;;;;;;;;;;;;6.88;84.41;100434.13;4479553;32;34233;-65
2021/12/31 00:35:47;;;;;;;;;;;;;;;6.73;85.13;100427.91;4473033;32;34115;-66
2021/12/31 00:38:14;;;;;;;;;;;;;;;6.23;88.22;100426.09;4476612;32;33972;-68
2021/12/31 00:40:42;;;;;;;;;;;;;;;6.19;88.63;100434.41;4479947;32;33168;-66
2021/12/31 00:43:12;;;;;;;;;;;;;;;6.28;87.80;100439.31;4474618;32;34414;-67
2021/12/31 00:45:40;;;;;;;;;;;;;;;5.80;91.04;100440.97;4459375;32;34194;-64
2021/12/31 00:48:09;;;;;;;;;;;;;;;6.03;90.86;100427.25;4467462;32;34986;-66
2021/12/31 00:50:36;;;;;;;;;;;;;;;6.24;89.56;100443.34;4475274;32;33506;-68
2021/12/31 00:53:04;;;;;;;;;;;;;;;6.24;90.66;100442.47;4478488;32;34217;-68
2021/12/31 00:55:31;;;;;;;;;;;;;;;6.05;91.03;100446.25;4473561;32;35009;-64
2021/12/31 00:57:59;;;;;;;;;;;;;;;6.50;88.80;100442.62;4472764;32;34066;-65
2021/12/31 01:00:26;;;;;;;;;;;;;;;6.38;89.15;100446.91;4470955;32;34235;-63
2021/12/31 01:02:54;;;;;;;;;;;;;;;6.65;88.01;100441.94;4477016;32;34314;-67
2021/12/31 01:05:21;;;;;;;;;;;;;;;6.47;88.60;100446.66;4472921;32;34602;-64
2021/12/31 01:07:48;;;;;;;;;;;;;;;6.27;90.03;100450.37;4475030;32;34114;-66
2021/12/31 01:10:16;;;;;;;;;;;;;;;6.10;91.41;100447.50;4481968;32;34202;-66
2021/12/31 01:12:44;;;;;;;;;;;;;;;6.37;90.85;100450.25;4472217;32;34198;-65
2021/12/31 01:15:33;;;;;;;;;;;;;;;6.14;92.07;100455.41;4459678;32;34124;-65
2021/12/31 01:20:26;;;;;;;;;;;;;;;6.60;90.07;100449.31;4476828;32;33475;-68
2021/12/31 01:22:53;;;;;;;;;;;;;;;6.79;88.77;100445.47;4472003;32;34172;-65
2021/12/31 01:25:20;;;;;;;;;;;;;;;6.73;89.14;100451.09;4479118;32;34967;-66
2021/12/31 01:27:47;;;;;;;;;;;;;;;6.88;88.21;100446.13;4476493;32;34924;-64
2021/12/31 01:30:16;;;;;;;;;;;;;;;6.59;89.69;100446.66;4474514;32;34012;-66
2021/12/31 01:32:46;;;;;;;;;;;;;;;6.41;90.50;100452.28;4480016;32;34311;-65
2021/12/31 01:35:15;;;;;;;;;;;;;;;6.28;91.80;100455.66;4472822;32;34668;-68
2021/12/31 01:37:42;;;;;;;;;;;;;;;6.25;92.51;100454.53;4478276;32;33973;-64
2021/12/31 01:40:10;;;;;;;;;;;;;;;6.49;91.55;100451.16;4471669;32;33198;-63
2021/12/31 01:42:37;;;;;;;;;;;;;;;6.78;90.39;100449.75;4473013;32;34877;-64
2021/12/31 01:45:05;;;;;;;;;;;;;;;7.81;84.48;100453.25;4456022;32;34668;-66
2021/12/31 01:47:55;;;;;;;;;;;;;;;6.87;88.10;100445.22;4473488;32;35004;-65
2021/12/31 01:50:27;;;;;;;;;;;;;;;6.85;88.99;100444.22;4470848;32;32894;-67
2021/12/31 01:52:55;;;;;;;;;;;;;;;7.85;85.02;100450.09;4474283;32;34177;-65
2021/12/31 01:55:23;;;;;;;;;;;;;;;7.72;83.30;100450.06;4473592;32;33782;-68
2021/12/31 01:57:50;;;;;;;;;;;;;;;8.47;81.41;100442.06;4476302;32;34205;-68
2021/12/31 02:00:19;;;;;;;;;;;;;;;8.76;79.36;100449.06;4478314;32;32903;-69
2021/12/31 02:02:46;;;;;;;;;;;;;;;8.27;80.23;100451.09;4474982;32;34174;-67
2021/12/31 02:05:14;;;;;;;;;;;;;;;7.79;83.19;100450.56;4463652;32;33478;-66
2021/12/31 02:07:41;;;;;;;;;;;;;;;8.16;81.90;100458.13;4466254;32;34506;-66
2021/12/31 02:10:09;;;;;;;;;;;;;;;8.10;82.12;100443.97;4472891;32;33135;-66
2021/12/31 02:12:41;;;;;;;;;;;;;;;7.82;84.08;100457.63;4465239;32;34646;-64
2021/12/31 02:15:09;;;;;;;;;;;;;;;8.28;82.05;100452.88;4469670;32;34238;-66
2021/12/31 02:17:36;;;;;;;;;;;;;;;8.50;79.63;100451.69;4456861;32;32287;-65
2021/12/31 02:20:05;;;;;;;;;;;;;;;7.62;84.52;100452.03;4476939;32;33708;-65
2021/12/31 02:22:38;;;;;;;;;;;;;;;7.53;85.14;100448.81;4470364;32;33456;-65
2021/12/31 02:25:08;;;;;;;;;;;;;;;7.51;86.09;100445.25;4472699;32;33850;-66
2021/12/31 02:27:37;;;;;;;;;;;;;;;7.63;85.36;100448.69;4479091;32;34598;-67
2021/12/31 02:30:05;;;;;;;;;;;;;;;7.84;84.70;100437.97;4471535;32;33249;-66
2021/12/31 02:32:32;;;;;;;;;;;;;;;7.78;85.59;100428.13;4472142;32;34495;-65
2021/12/31 02:34:59;;;;;;;;;;;;;;;7.70;85.22;100436.19;4482414;32;34315;-68
2021/12/31 02:37:26;;;;;;;;;;;;;;;7.56;86.21;100433.56;4478786;32;34302;-65
2021/12/31 02:39:54;;;;;;;;;;;;;;;8.59;81.73;100429.03;4477570;32;33439;-66
2021/12/31 02:42:21;;;;;;;;;;;;;;;9.08;78.62;100421.75;4468261;32;33576;-68
2021/12/31 02:44:50;;;;;;;;;;;;;;;9.20;77.85;100419.00;4476460;32;34603;-64
2021/12/31 02:47:17;;;;;;;;;;;;;;;8.35;79.72;100418.94;4472206;32;33985;-66
2021/12/31 02:49:47;;;;;;;;;;;;;;;8.89;78.36;100422.31;4470552;32;33216;-64
2021/12/31 02:52:15;;;;;;;;;;;;;;;8.10;80.76;100420.75;4478283;32;33918;-67
2021/12/31 02:54:45;;;;;;;;;;;;;;;8.64;79.68;100413.03;4477125;32;34618;-69
2021/12/31 02:57:13;;;;;;;;;;;;;;;8.90;77.76;100410.28;4478187;32;34086;-68
2021/12/31 02:59:41;;;;;;;;;;;;;;;9.20;76.16;100408.66;4474486;32;33057;-66
2021/12/31 03:02:08;;;;;;;;;;;;;;;8.93;77.07;100405.31;4470424;32;34190;-68
2021/12/31 03:04:38;;;;;;;;;;;;;;;8.35;79.89;100402.56;4476670;32;33587;-67
2021/12/31 03:07:07;;;;;;;;;;;;;;;9.31;75.79;100405.03;4474820;32;33968;-68
2021/12/31 03:09:34;;;;;;;;;;;;;;;9.52;74.27;100407.06;4473250;32;33265;-68
2021/12/31 03:12:02;;;;;;;;;;;;;;;9.29;74.44;100410.88;4480518;32;34448;-67
2021/12/31 03:14:29;;;;;;;;;;;;;;;7.81;80.23;100417.16;4463106;32;34089;-65
2021/12/31 03:16:56;;;;;;;;;;;;;;;7.35;83.48;100420.13;4479062;32;34083;-68
2021/12/31 03:19:24;;;;;;;;;;;;;;;7.77;80.93;100410.91;4457706;32;33208;-68
2021/12/31 03:21:51;;;;;;;;;;;;;;;8.09;79.75;100414.66;4464982;32;34413;-65
2021/12/31 03:24:18;;;;;;;;;;;;;;;7.93;79.52;100407.63;4477079;32;33808;-69
2021/12/31 03:26:45;;;;;;;;;;;;;;;7.24;82.23;100410.78;4474528;32;34106;-68
2021/12/31 03:29:12;;;;;;;;;;;;;;;6.87;84.30;100404.00;4480172;32;33038;-70
2021/12/31 03:31:39;;;;;;;;;;;;;;;6.50;86.16;100406.59;4479492;32;33884;-65
2021/12/31 03:34:07;;;;;;;;;;;;;;;7.09;84.91;100410.66;4478664;32;33984;-65
2021/12/31 03:39:21;;;;;;;;;;;;;;;6.63;85.54;100407.47;4482503;32;33335;-69
2021/12/31 03:41:48;;;;;;;;;;;;;;;5.97;88.21;100398.53;4476365;32;34058;-67
2021/12/31 03:44:15;;;;;;;;;;;;;;;5.79;89.75;100400.59;4477784;32;33960;-65
2021/12/31 03:46:44;;;;;;;;;;;;;;;5.68;90.40;100402.41;4478925;32;33639;-64
2021/12/31 03:49:11;;;;;;;;;;;;;;;5.70;90.19;100395.69;4476602;32;33076;-69
2021/12/31 03:51:39;;;;;;;;;;;;;;;5.66;90.31;100403.97;4475198;31;34878;-66
2021/12/31 03:54:06;;;;;;;;;;;;;;;5.47;91.13;100400.81;4473846;32;34208;-64
2021/12/31 03:56:34;;;;;;;;;;;;;;;5.45;91.64;100410.09;4477882;32;34897;-69
2021/12/31 03:59:01;;;;;;;;;;;;;;;5.60;91.75;100408.66;4476782;32;33579;-67
2021/12/31 04:01:28;;;;;;;;;;;;;;;5.72;92.43;100414.69;4482220;32;34275;-69
2021/12/31 04:03:56;;;;;;;;;;;;;;;5.70;92.69;100411.13;4463400;32;34806;-69
2021/12/31 04:06:24;;;;;;;;;;;;;;;5.93;91.81;100404.19;4484563;32;34980;-67
2021/12/31 04:08:51;;;;;;;;;;;;;;;5.92;92.18;100412.69;4471267;32;34075;-65
2021/12/31 04:11:18;;;;;;;;;;;;;;;6.00;92.27;100410.69;4476563;32;33797;-68
2021/12/31 04:13:45;;;;;;;;;;;;;;;5.98;93.23;100410.59;4474821;32;33915;-67
2021/12/31 04:16:12;;;;;;;;;;;;;;;6.29;91.63;100410.22;4471257;32;34486;-64
2021/12/31 04:18:40;;;;;;;;;;;;;;;6.27;90.72;100411.78;4477818;32;34228;-64
2021/12/31 04:21:07;;;;;;;;;;;;;;;5.98;92.46;100405.44;4476341;32;34252;-67
2021/12/31 04:23:47;;;;;;;;;;;;;;;5.94;93.08;100400.81;4474805;32;34168;-65
2021/12/31 04:26:15;;;;;;;;;;;;;;;5.80;94.34;100401.50;4471976;32;34696;-68
2021/12/31 04:28:42;;;;;;;;;;;;;;;5.76;95.24;100399.50;4474147;32;33029;-68
2021/12/31 04:31:09;;;;;;;;;;;;;;;5.86;95.73;100404.53;4472055;32;33945;-65
2021/12/31 04:33:37;;;;;;;;;;;;;;;6.03;95.39;100406.69;4458838;32;34735;-67
2021/12/31 04:36:04;;;;;;;;;;;;;;;6.23;95.67;100405.53;4478248;32;33845;-68
2021/12/31 04:38:31;;;;;;;;;;;;;;;6.39;94.81;100402.38;4473527;32;33847;-67
2021/12/31 04:40:59;;;;;;;;;;;;;;;6.67;93.39;100404.31;4473238;32;34251;-67
2021/12/31 04:43:26;;;;;;;;;;;;;;;7.09;89.77;100405.50;4472069;32;34223;-65
2021/12/31 04:45:53;;;;;;;;;;;;;;;7.15;87.90;100411.06;4479651;32;35133;-64
2021/12/31 04:48:21;;;;;;;;;;;;;;;7.12;87.40;100409.97;4474605;32;34139;-67
2021/12/31 04:50:48;;;;;;;;;;;;;;;7.19;85.33;100413.06;4475032;32;33974;-67
2021/12/31 04:53:15;;;;;;;;;;;;;;;7.24;84.81;100411.69;4479453;32;34044;-69
2021/12/31 04:55:43;;;;;;;;;;;;;;;7.16;84.97;100412.84;4473303;32;34145;-68
2021/12/31 04:58:10;;;;;;;;;;;;;;;6.74;86.62;100410.78;4479757;32;33242;-66
2021/12/31 05:00:37;;;;;;;;;;;;;;;7.79;83.06;100403.28;4457101;32;34105;-68
2021/12/31 05:03:05;;;;;;;;;;;;;;;7.54;83.53;100417.13;4471570;32;34321;-65
2021/12/31 05:05:33;;;;;;;;;;;;;;;8.58;75.93;100409.19;4480885;32;34130;-69
2021/12/31 05:08:00;;;;;;;;;;;;;;;8.46;75.73;100405.03;4466119;32;31945;-65
2021/12/31 05:10:31;;;;;;;;;;;;;;;8.50;74.97;100407.78;4476713;32;34140;-66
2021/12/31 05:12:59;;;;;;;;;;;;;;;6.63;81.40;100420.34;4467589;32;33991;-69
2021/12/31 05:15:28;;;;;;;;;;;;;;;5.81;86.58;100421.28;4472266;32;34868;-66
2021/12/31 05:17:55;;;;;;;;;;;;;;;5.55;89.54;100430.53;4460090;32;32909;-67
2021/12/31 05:20:23;;;;;;;;;;;;;;;5.82;89.12;100421.41;4472496;32;34855;-65
2021/12/31 05:22:52;;;;;;;;;;;;;;;5.90;89.44;100424.53;4477600;32;33594;-65
2021/12/31 05:25:21;;;;;;;;;;;;;;;5.89;89.56;100421.06;4479797;32;33678;-69
2021/12/31 05:27:49;;;;;;;;;;;;;;;5.84;91.06;100421.53;4467978;32;32883;-66
2021/12/31 05:30:16;;;;;;;;;;;;;;;5.90;90.87;100419.41;4478681;32;33887;-67
2021/12/31 05:32:44;;;;;;;;;;;;;;;6.05;90.35;100423.13;4460349;32;32591;-67
2021/12/31 05:35:11;;;;;;;;;;;;;;;6.07;90.89;100421.53;4478211;32;32351;-66
2021/12/31 05:37:39;;;;;;;;;;;;;;;5.95;91.58;100422.28;4478733;32;34080;-66
2021/12/31 05:40:06;;;;;;;;;;;;;;;5.89;92.89;100417.59;4448200;32;33663;-68
2021/12/31 05:42:33;;;;;;;;;;;;;;;5.96;93.06;100419.87;4476898;32;33618;-66
2021/12/31 05:45:00;;;;;;;;;;;;;;;6.14;92.56;100424.56;4478105;32;33754;-65
2021/12/31 05:47:28;;;;;;;;;;;;;;;6.09;91.88;100426.81;4480247;32;33898;-66
2021/12/31 05:49:55;;;;;;;;;;;;;;;5.84;91.62;100435.25;4476205;32;34896;-66
2021/12/31 05:52:22;;;;;;;;;;;;;;;6.76;88.95;100435.88;4465951;32;34113;-63
2021/12/31 05:54:50;;;;;;;;;;;;;;;7.45;83.84;100431.97;4461761;32;34094;-67
2021/12/31 05:57:17;;;;;;;;;;;;;;;8.02;79.83;100435.72;4475904;32;34328;-69
2021/12/31 05:59:44;;;;;;;;;;;;;;;7.77;79.74;100438.38;4479840;32;34076;-68
2021/12/31 06:02:11;;;;;;;;;;;;;;;8.20;76.18;100431.72;4479103;32;34311;-67
2021/12/31 06:04:39;;;;;;;;;;;;;;;8.37;74.81;100432.81;4474983;32;34078;-68
2021/12/31 06:07:09;;;;;;;;;;;;;;;7.85;76.49;100447.50;4479784;32;33254;-68
2021/12/31 06:09:36;;;;;;;;;;;;;;;7.04;79.47;100448.06;4475212;32;33898;-68
2021/12/31 06:12:04;;;;;;;;;;;;;;;7.73;75.61;100450.19;4474140;32;34180;-68
2021/12/31 06:14:31;;;;;;;;;;;;;;;7.28;77.75;100454.00;4475387;32;34293;-66
2021/12/31 06:17:05;;;;;;;;;;;;;;;7.82;74.52;100435.31;4458267;32;33386;-67
2021/12/31 06:19:33;;;;;;;;;;;;;;;8.12;72.57;100447.53;4469804;32;34587;-65
2021/12/31 06:22:01;;;;;;;;;;;;;;;8.13;71.79;100447.63;4471239;32;34391;-67
2021/12/31 06:24:28;;;;;;;;;;;;;;;7.29;74.43;100451.53;4478373;32;34130;-68
2021/12/31 06:26:56;;;;;;;;;;;;;;;7.09;76.11;100451.88;4481979;32;33317;-66
2021/12/31 06:29:23;;;;;;;;;;;;;;;7.38;75.13;100455.53;4480934;32;34904;-66
2021/12/31 06:31:50;;;;;;;;;;;;;;;7.05;75.59;100460.16;4474431;32;33795;-67
2021/12/31 06:34:18;;;;;;;;;;;;;;;7.53;74.71;100466.88;4475632;32;34153;-67
2021/12/31 06:36:45;;;;;;;;;;;;;;;7.67;73.63;100462.66;4473263;32;34053;-64
2021/12/31 06:39:12;;;;;;;;;;;;;;;7.66;73.08;100464.31;4474317;32;34063;-69
2021/12/31 06:41:39;;;;;;;;;;;;;;;7.67;73.22;100466.12;4464032;32;34200;-67
2021/12/31 06:44:07;;;;;;;;;;;;;;;7.65;73.36;100467.72;4472100;32;34184;-68
2021/12/31 06:46:34;;;;;;;;;;;;;;;6.95;75.84;100460.31;4478494;32;33361;-68
2021/12/31 06:49:01;;;;;;;;;;;;;;;6.64;78.45;100468.47;4484359;32;33975;-66
2021/12/31 06:51:28;;;;;;;;;;;;;;;6.13;81.24;100480.25;4473431;32;33987;-66
2021/12/31 06:53:55;;;;;;;;;;;;;;;6.09;81.12;100468.84;4480718;32;34332;-66
2021/12/31 06:56:23;;;;;;;;;;;;;;;5.28;85.65;100471.34;4478629;32;33412;-65
2021/12/31 06:58:50;;;;;;;;;;;;;;;6.18;80.97;100462.56;4477563;32;34051;-67
2021/12/31 07:01:17;;;;;;;;;;;;;;;5.51;84.13;100474.78;4482097;32;34902;-64
2021/12/31 07:03:45;;;;;;;;;;;;;;;6.55;80.03;100470.38;4477489;32;34094;-68
2021/12/31 07:06:12;;;;;;;;;;;;;;;6.50;80.04;100476.09;4482603;32;33448;-69
2021/12/31 07:08:40;;;;;;;;;;;;;;;6.14;82.62;100481.16;4477417;32;33900;-67
2021/12/31 07:11:08;;;;;;;;;;;;;;;5.97;84.21;100485.97;4473527;32;35097;-64
2021/12/31 07:13:38;;;;;;;;;;;;;;;5.78;86.28;100485.34;4479772;32;35100;-67
2021/12/31 07:16:06;;;;;;;;;;;;;;;6.27;85.16;100483.84;4470773;32;33384;-67
2021/12/31 07:18:34;;;;;;;;;;;;;;;6.71;84.65;100486.12;4472959;32;32550;-65
2021/12/31 07:21:01;;;;;;;;;;;;;;;6.92;83.57;100493.59;4474189;32;34168;-65
2021/12/31 07:23:28;;;;;;;;;;;;;;;6.93;82.51;100500.53;4454545;32;33546;-66
2021/12/31 07:25:56;;;;;;;;;;;;;;;6.77;83.97;100498.56;4474460;32;33411;-65
2021/12/31 07:28:23;;;;;;;;;;;;;;;6.35;86.65;100500.72;4478961;32;33821;-66
2021/12/31 07:30:50;;;;;;;;;;;;;;;6.27;88.59;100507.00;4472793;32;34125;-66
2021/12/31 07:33:22;;;;;;;;;;;;;;;6.01;92.40;100511.13;4476413;32;34966;-67
2021/12/31 07:35:49;;;;;;;;;;;;;;;6.48;91.11;100503.41;4474267;32;33482;-68
2021/12/31 07:38:36;;;;;;;;;;;;;;;6.76;89.51;100513.12;4473868;32;34040;-68
2021/12/31 07:41:03;;;;;;;;;;;;;;;6.61;92.61;100512.91;4472371;32;34513;-68
2021/12/31 07:43:31;;;;;;;;;;;;;;;7.09;90.44;100508.56;4484180;32;33917;-66
2021/12/31 07:45:58;;;;;;;;;;;;;;;7.34;89.54;100515.37;4470743;32;33108;-69
2021/12/31 07:48:26;;;;;;;;;;;;;;;7.42;90.43;100509.97;4459927;32;33105;-66
2021/12/31 07:50:54;;;;;;;;;;;;;;;7.17;93.41;100509.97;4470436;32;34850;-66
2021/12/31 07:53:21;;;;;;;;;;;;;;;7.09;95.67;100508.56;4472669;32;34177;-64
2021/12/31 07:55:50;;;;;;;;;;;;;;;7.41;95.33;100512.44;4473416;32;33381;-65
2021/12/31 07:58:17;;;;;;;;;;;;;;;7.39;95.75;100508.88;4481931;32;34002;-66
2021/12/31 08:00:45;;;;;;;;;;;;;;;8.19;92.98;100509.06;4477900;32;35003;-69
2021/12/31 08:03:15;;;;;;;;;;;;;;;8.36;89.17;100503.28;4465593;32;34785;-67
2021/12/31 08:05:42;;;;;;;;;;;;;;;8.37;90.09;100509.38;4476203;32;33037;-64
2021/12/31 08:08:09;;;;;;;;;;;;;;;8.04;92.88;100525.31;4471034;32;34633;-66
2021/12/31 08:10:38;;;;;;;;;;;;;;;8.19;92.60;100521.94;4471862;32;34504;-68
2021/12/31 08:13:22;;;;;;;;;;;;;;;8.21;93.55;100529.03;4458639;32;34897;-66
2021/12/31 08:15:50;;;;;;;;;;;;;;;8.46;93.14;100521.22;4471576;32;33085;-68
2021/12/31 08:18:17;;;;;;;;;;;;;;;8.69;92.00;100514.03;4471150;32;33597;-68
2021/12/31 08:20:44;;;;;;;;;;;;;;;8.89;92.16;100517.91;4470817;32;35404;-66
2021/12/31 08:23:12;;;;;;;;;;;;;;;8.80;93.05;100518.19;4472594;32;34875;-66
2021/12/31 08:25:39;;;;;;;;;;;;;;;9.22;90.61;100528.56;4475615;32;33530;-68
2021/12/31 08:28:07;;;;;;;;;;;;;;;9.07;92.74;100523.31;4469600;32;34030;-69
2021/12/31 08:30:34;;;;;;;;;;;;;;;9.55;90.34;100518.47;4473210;32;33695;-67
2021/12/31 08:33:02;;;;;;;;;;;;;;;9.58;90.50;100519.56;4457328;32;34013;-65
2021/12/31 08:35:29;;;;;;;;;;;;;;;9.76;89.98;100524.03;4470620;32;33288;-66
2021/12/31 08:37:57;;;;;;;;;;;;;;;10.28;86.50;100521.91;4477082;32;33968;-65
2021/12/31 08:40:24;;;;;;;;;;;;;;;9.79;89.24;100521.63;4473474;32;33845;-68
2021/12/31 08:42:51;;;;;;;;;;;;;;;10.26;87.54;100523.53;4477681;32;34147;-66
2021/12/31 08:45:20;;;;;;;;;;;;;;;10.43;86.31;100517.66;4477390;32;34250;-67
2021/12/31 08:47:48;;;;;;;;;;;;;;;10.92;82.44;100508.22;4478559;32;34191;-69
2021/12/31 08:50:15;;;;;;;;;;;;;;;10.92;82.03;100509.09;4473418;32;34083;-69
2021/12/31 08:52:42;;;;;;;;;;;;;;;11.01;81.49;100509.62;4460713;32;32271;-65
2021/12/31 08:55:11;;;;;;;;;;;;;;;11.07;81.71;100514.25;4471136;32;34199;-67
2021/12/31 08:57:38;;;;;;;;;;;;;;;11.22;80.73;100514.16;4472518;32;34201;-66
2021/12/31 09:00:06;;;;;;;;;;;;;;;10.93;82.53;100515.19;4474016;32;32533;-66
2021/12/31 09:02:35;;;;;;;;;;;;;;;11.50;80.61;100508.72;4473138;32;36297;-66
2021/12/31 09:05:03;;;;;;;;;;;;;;;11.79;78.88;100504.16;4472348;32;33424;-67
2021/12/31 09:07:30;;;;;;;;;;;;;;;11.83;78.91;100506.09;4473165;32;34970;-66
2021/12/31 09:09:57;;;;;;;;;;;;;;;11.65;79.52;100500.88;4461640;32;32777;-66
2021/12/31 09:12:24;;;;;;;;;;;;;;;11.75;80.00;100502.22;4472026;32;34410;-66
2021/12/31 09:14:52;;;;;;;;;;;;;;;11.65;81.53;100505.13;4470586;32;34343;-66
2021/12/31 09:17:21;;;;;;;;;;;;;;;11.42;81.67;100504.84;4470494;32;34739;-68
2021/12/31 09:19:49;;;;;;;;;;;;;;;12.16;78.73;100485.28;4472069;32;34788;-66
2021/12/31 09:22:17;;;;;;;;;;;;;;;12.14;78.69;100502.47;4464386;32;33748;-68
2021/12/31 09:24:44;;;;;;;;;;;;;;;11.73;80.29;100509.03;4471240;32;33533;-66
2021/12/31 09:27:11;;;;;;;;;;;;;;;12.07;79.19;100500.38;4479974;32;34765;-67
2021/12/31 09:29:39;;;;;;;;;;;;;;;12.43;76.78;100490.91;4469769;32;34006;-65
2021/12/31 09:32:06;;;;;;;;;;;;;;;12.38;77.29;100493.31;4453376;32;31881;-65
2021/12/31 09:34:34;;;;;;;;;;;;;;;12.66;76.38;100496.34;4474271;32;33424;-67
2021/12/31 09:37:01;;;;;;;;;;;;;;;12.20;78.37;100493.28;4475909;32;34955;-65
2021/12/31 09:39:28;;;;;;;;;;;;;;;12.81;76.59;100494.47;4468704;32;33800;-67
2021/12/31 09:41:56;;;;;;;;;;;;;;;13.33;73.82;100482.97;4469878;32;34033;-65
2021/12/31 09:44:23;;;;;;;;;;;;;;;13.21;73.87;100484.97;4470344;32;33038;-63
2021/12/31 09:46:51;;;;;;;;;;;;;;;13.30;73.46;100488.03;4476210;32;34790;-68
2021/12/31 09:49:18;;;;;;;;;;;;;;;12.51;76.95;100479.16;4462715;32;32840;-64
2021/12/31 09:51:45;;;;;;;;;;;;;;;12.85;75.89;100495.50;4468471;32;33985;-68
2021/12/31 09:54:13;;;;;;;;;;;;;;;12.61;75.84;100490.91;4459226;32;32799;-66
2021/12/31 09:56:40;;;;;;;;;;;;;;;12.32;78.39;100498.22;4477770;32;34242;-70
2021/12/31 09:59:08;;;;;;;;;;;;;;;12.23;77.72;100497.75;4473351;32;33836;-66
2021/12/31 10:01:49;;;;;;;;;;;;;;;12.05;78.86;100495.09;4481277;32;34400;-64
2021/12/31 10:04:17;;;;;;;;;;;;;;;12.16;79.22;100496.53;4480063;32;33415;-65
2021/12/31 10:07:06;;;;;;;;;;;;;;;12.49;77.49;100491.19;4464575;32;35025;-64
2021/12/31 10:09:35;;;;;;;;;;;;;;;12.87;76.82;100486.94;4458615;32;32299;-67
2021/12/31 10:12:08;;;;;;;;;;;;;;;12.51;77.57;100480.87;4472696;32;34024;-64
2021/12/31 10:14:36;;;;;;;;;;;;;;;13.16;75.44;100472.66;4476149;32;33201;-64
2021/12/31 10:17:04;;;;;;;;;;;;;;;12.99;75.95;100476.22;4462581;32;33247;-66
2021/12/31 10:19:32;;;;;;;;;;;;;;;13.06;75.55;100475.66;4471722;32;34244;-64
2021/12/31 10:21:59;;;;;;;;;;;;;;;13.34;74.58;100474.34;4455191;32;33937;-65
2021/12/31 10:24:36;;;;;;;;;;;;;;;13.13;74.77;100469.03;4477193;32;33109;-65
2021/12/31 10:27:09;;;;;;;;;;;;;;;12.88;75.44;100474.81;4478399;32;33880;-66
2021/12/31 10:29:53;;;;;;;;;;;;;;;13.06;74.07;100470.47;4471503;32;34301;-65
2021/12/31 10:32:24;;;;;;;;;;;;;;;12.93;74.75;100470.72;4471713;32;33881;-67
2021/12/31 10:34:51;;;;;;;;;;;;;;;13.36;73.56;100467.47;4460877;32;32791;-63
2021/12/31 10:37:20;;;;;;;;;;;;;;;13.22;74.17;100471.16;4479207;32;34262;-64
2021/12/31 10:39:54;;;;;;;;;;;;;;;13.41;73.58;100465.97;4458929;32;33747;-66
2021/12/31 10:42:21;;;;;;;;;;;;;;;13.40;73.03;100465.91;4459208;32;32306;-69
2021/12/31 10:44:49;;;;;;;;;;;;;;;13.32;72.90;100462.97;4461826;32;33299;-65
2021/12/31 10:47:18;;;;;;;;;;;;;;;13.72;72.31;100459.50;4471076;32;34855;-64
2021/12/31 10:50:04;;;;;;;;;;;;;;;13.27;73.01;100460.16;4476878;32;34924;-67
2021/12/31 10:52:41;;;;;;;;;;;;;;;13.42;72.98;100459.94;4482334;32;34051;-64
2021/12/31 10:55:18;;;;;;;;;;;;;;;13.51;72.28;100460.34;4480954;32;33746;-62
2021/12/31 10:57:46;;;;;;;;;;;;;;;13.31;72.94;100466.41;4470223;32;34137;-66
2021/12/31 11:00:14;;;;;;;;;;;;;;;13.14;73.34;100471.69;4478096;32;33775;-66
2021/12/31 11:02:42;;;;;;;;;;;;;;;13.29;72.85;100473.19;4468795;32;34699;-64
2021/12/31 11:05:11;;;;;;;;;;;;;;;13.32;72.86;100475.97;4471137;32;33364;-68
2021/12/31 11:07:39;;;;;;;;;;;;;;;13.90;71.58;100465.47;4466231;32;33031;-63
2021/12/31 11:10:27;;;;;;;;;;;;;;;13.27;73.73;100467.94;4477684;32;34393;-66
2021/12/31 11:12:54;;;;;;;;;;;;;;;13.85;72.37;100461.81;4454382;32;34733;-63
2021/12/31 11:15:22;;;;;;;;;;;;;;;14.07;70.95;100460.09;4482459;32;33370;-65
2021/12/31 11:17:52;;;;;;;;;;;;;;;14.04;71.06;100457.34;4472761;32;34820;-63
2021/12/31 11:20:21;;;;;;;;;;;;;;;13.77;71.51;100452.75;4472725;32;33233;-64
2021/12/31 11:22:48;;;;;;;;;;;;;;;14.09;69.78;100461.91;4473189;32;34182;-65
2021/12/31 11:25:35;;;;;;;;;;;;;;;13.91;70.80;100454.25;4468108;32;30947;-67
2021/12/31 11:28:02;;;;;;;;;;;;;;;14.33;69.09;100451.63;4471388;32;34810;-64
2021/12/31 11:30:33;;;;;;;;;;;;;;;14.32;68.41;100454.16;4477426;32;33655;-67
2021/12/31 11:33:10;;;;;;;;;;;;;;;14.55;67.91;100447.25;4482141;32;34902;-64
2021/12/31 11:35:40;;;;;;;;;;;;;;;15.00;65.75;100452.47;4476175;32;33824;-67
2021/12/31 11:38:13;;;;;;;;;;;;;;;14.17;68.49;100444.00;4477503;32;35179;-66
2021/12/31 11:40:50;;;;;;;;;;;;;;;14.06;70.20;100451.38;4476090;32;34235;-66
2021/12/31 11:43:22;;;;;;;;;;;;;;;13.83;71.37;100447.84;4471860;32;34511;-63
2021/12/31 11:46:08;;;;;;;;;;;;;;;13.75;71.81;100449.19;4481574;32;33670;-67
2021/12/31 11:48:45;;;;;;;;;;;;;;;13.77;71.87;100437.13;4477144;32;34233;-68
2021/12/31 11:51:18;;;;;;;;;;;;;;;13.65;72.22;100442.72;4481775;32;34386;-65
2021/12/31 11:54:01;;;;;;;;;;;;;;;13.66;72.33;100448.84;4485171;32;34545;-66
2021/12/31 11:59:07;;;;;;;;;;;;;;;13.76;71.68;100445.78;4471026;32;33928;-65
2021/12/31 12:01:47;;;;;;;;;;;;;;;13.36;72.94;100446.66;4474291;32;35077;-64
2021/12/31 12:04:24;;;;;;;;;;;;;;;13.52;72.33;100443.91;4471067;32;34928;-64
2021/12/31 12:07:02;;;;;;;;;;;;;;;13.61;72.37;100434.72;4471476;32;33495;-65
2021/12/31 12:09:35;;;;;;;;;;;;;;;13.69;71.64;100434.19;4483641;32;33868;-63
2021/12/31 12:12:10;;;;;;;;;;;;;;;13.21;72.97;100433.81;4470739;32;35098;-66
2021/12/31 12:14:40;;;;;;;;;;;;;;;13.88;71.41;100432.38;4471621;32;34164;-63
2021/12/31 12:17:08;;;;;;;;;;;;;;;13.93;70.83;100433.47;4467791;32;34556;-67
2021/12/31 12:19:49;;;;;;;;;;;;;;;13.88;71.20;100430.66;4469288;32;34744;-67
2021/12/31 12:22:24;;;;;;;;;;;;;;;13.95;70.88;100432.69;4470135;32;33558;-63
2021/12/31 12:24:52;;;;;;;;;;;;;;;14.19;70.38;100425.81;4471155;32;35018;-68
2021/12/31 12:27:20;;;;;;;;;;;;;;;14.46;69.50;100423.41;4482916;32;33990;-62
2021/12/31 12:29:48;;;;;;;;;;;;;;;15.11;67.39;100425.03;4483839;32;33723;-67
2021/12/31 12:32:17;;;;;;;;;;;;;;;14.27;70.36;100422.69;4482376;32;34917;-65
2021/12/31 12:34:44;;;;;;;;;;;;;;;14.18;70.53;100422.34;4470945;32;34407;-65
2021/12/31 12:37:11;;;;;;;;;;;;;;;14.09;71.09;100415.03;4481758;32;34183;-65
2021/12/31 12:39:39;;;;;;;;;;;;;;;14.23;69.79;100412.97;4458590;32;33159;-67
2021/12/31 12:42:07;;;;;;;;;;;;;;;14.31;70.54;100426.31;4473576;32;34202;-65
2021/12/31 12:44:34;;;;;;;;;;;;;;;14.64;69.63;100418.06;4471257;32;34877;-64
2021/12/31 12:47:02;;;;;;;;;;;;;;;14.40;70.27;100417.97;4485753;32;33264;-66
2021/12/31 12:49:29;;;;;;;;;;;;;;;14.87;68.16;100419.84;4474208;32;34659;-67
2021/12/31 12:52:09;;;;;;;;;;;;;;;15.01;67.93;100416.81;4479900;32;34611;-64
2021/12/31 12:54:37;;;;;;;;;;;;;;;15.18;67.25;100417.44;4470974;32;34015;-65
2021/12/31 12:57:04;;;;;;;;;;;;;;;14.77;68.12;100416.81;4470301;32;33009;-63
2021/12/31 12:59:31;;;;;;;;;;;;;;;15.43;66.27;100407.06;4471108;32;33902;-64